sensor_id;sensor_type;location;lat;lon;timestamp;pressure;altitude;pressure_sealevel;temperature;humidity
73518;BME280;61766;60.318;25.044;2023-08-24T00:00:15;101037.73;;;18.60;44.95
73518;BME280;61766;60.318;25.044;2023-08-24T00:02:40;101039.69;;;19.25;44.64
73518;BME280;61766;60.318;25.044;2023-08-24T00:05:06;101037.95;;;19.16;44.73
73518;BME280;61766;60.318;25.044;2023-08-24T00:07:32;101039.20;;;19.05;44.61
73518;BME280;61766;60.318;25.044;2023-08-24T00:09:58;101041.43;;;19.13;45.33
73518;BME280;61766;60.318;25.044;2023-08-24T00:12:23;101042.07;;;19.05;46.16
73518;BME280;61766;60.318;25.044;2023-08-24T00:14:49;101042.89;;;19.18;45.49
73518;BME280;61766;60.318;25.044;2023-08-24T00:17:15;101043.00;;;19.27;45.42
73518;BME280;61766;60.318;25.044;2023-08-24T00:19:41;101041.84;;;19.30;45.61
73518;BME280;61766;60.318;25.044;2023-08-24T00:22:06;101042.23;;;19.46;45.36
73518;BME280;61766;60.318;25.044;2023-08-24T00:24:32;101042.70;;;19.64;44.97
73518;BME280;61766;60.318;25.044;2023-08-24T00:26:58;101046.56;;;19.71;45.34
73518;BME280;61766;60.318;25.044;2023-08-24T00:29:24;101049.26;;;19.78;45.21
73518;BME280;61766;60.318;25.044;2023-08-24T00:31:49;101049.34;;;19.65;45.96
73518;BME280;61766;60.318;25.044;2023-08-24T00:34:15;101051.00;;;19.63;46.24
73518;BME280;61766;60.318;25.044;2023-08-24T00:36:41;101048.12;;;19.80;45.60
73518;BME280;61766;60.318;25.044;2023-08-24T00:39:07;101046.26;;;19.95;45.58
73518;BME280;61766;60.318;25.044;2023-08-24T00:41:32;101044.82;;;19.61;45.26
73518;BME280;61766;60.318;25.044;2023-08-24T00:43:57;101042.92;;;20.19;45.49
73518;BME280;61766;60.318;25.044;2023-08-24T00:46:23;101040.80;;;20.02;44.81
73518;BME280;61766;60.318;25.044;2023-08-24T00:48:49;101043.51;;;20.11;44.54
73518;BME280;61766;60.318;25.044;2023-08-24T00:51:14;101043.77;;;20.25;44.66
73518;BME280;61766;60.318;25.044;2023-08-24T00:53:40;101041.74;;;19.91;44.98
73518;BME280;61766;60.318;25.044;2023-08-24T00:56:07;101042.17;;;20.17;45.13
73518;BME280;61766;60.318;25.044;2023-08-24T00:58:31;101043.21;;;20.02;45.05
73518;BME280;61766;60.318;25.044;2023-08-24T01:00:57;101043.81;;;20.10;45.04
73518;BME280;61766;60.318;25.044;2023-08-24T01:03:25;101046.99;;;20.12;45.22
73518;BME280;61766;60.318;25.044;2023-08-24T01:05:48;101047.70;;;19.84;45.25
73518;BME280;61766;60.318;25.044;2023-08-24T01:08:14;101049.01;;;20.07;45.34
73518;BME280;61766;60.318;25.044;2023-08-24T01:10:44;101048.49;;;20.23;45.08
73518;BME280;61766;60.318;25.044;2023-08-24T01:13:10;101048.60;;;20.44;44.90
73518;BME280;61766;60.318;25.044;2023-08-24T01:15:37;101048.01;;;20.44;45.00
73518;BME280;61766;60.318;25.044;2023-08-24T01:18:05;101049.35;;;20.19;45.06
73518;BME280;61766;60.318;25.044;2023-08-24T01:20:23;101047.24;;;19.85;45.28
73518;BME280;61766;60.318;25.044;2023-08-24T01:22:55;101046.66;;;19.92;44.90
73518;BME280;61766;60.318;25.044;2023-08-24T01:25:28;101046.55;;;20.11;45.00
73518;BME280;61766;60.318;25.044;2023-08-24T01:27:41;101045.05;;;20.32;45.06
73518;BME280;61766;60.318;25.044;2023-08-24T01:30:06;101041.76;;;20.28;45.18
73518;BME280;61766;60.318;25.044;2023-08-24T01:32:33;101044.00;;;20.17;45.58
73518;BME280;61766;60.318;25.044;2023-08-24T01:34:57;101042.06;;;19.72;45.61
73518;BME280;61766;60.318;25.044;2023-08-24T01:37:23;101041.69;;;20.33;45.31
73518;BME280;61766;60.318;25.044;2023-08-24T01:39:56;101039.00;;;20.08;45.35
73518;BME280;61766;60.318;25.044;2023-08-24T01:42:18;101040.10;;;20.16;45.13
73518;BME280;61766;60.318;25.044;2023-08-24T01:44:43;101039.92;;;20.37;45.24
73518;BME280;61766;60.318;25.044;2023-08-24T01:47:07;101039.64;;;19.96;45.09
73518;BME280;61766;60.318;25.044;2023-08-24T01:49:32;101037.38;;;20.53;44.72
73518;BME280;61766;60.318;25.044;2023-08-24T01:51:57;101041.10;;;19.75;45.54
73518;BME280;61766;60.318;25.044;2023-08-24T01:54:23;101040.92;;;19.52;46.29
73518;BME280;61766;60.318;25.044;2023-08-24T01:56:48;101041.53;;;19.34;47.72
73518;BME280;61766;60.318;25.044;2023-08-24T01:59:14;101041.52;;;19.22;48.03
73518;BME280;61766;60.318;25.044;2023-08-24T02:01:40;101043.70;;;19.40;47.85
73518;BME280;61766;60.318;25.044;2023-08-24T02:04:06;101046.50;;;19.06;47.79
73518;BME280;61766;60.318;25.044;2023-08-24T02:06:31;101049.11;;;19.34;47.02
73518;BME280;61766;60.318;25.044;2023-08-24T02:08:57;101048.45;;;19.18;46.90
73518;BME280;61766;60.318;25.044;2023-08-24T02:11:22;101051.80;;;19.51;46.77
73518;BME280;61766;60.318;25.044;2023-08-24T02:13:48;101053.80;;;19.65;46.31
73518;BME280;61766;60.318;25.044;2023-08-24T02:16:14;101056.59;;;19.60;46.18
73518;BME280;61766;60.318;25.044;2023-08-24T02:18:40;101053.65;;;19.81;45.91
73518;BME280;61766;60.318;25.044;2023-08-24T02:21:10;101051.44;;;19.99;45.64
73518;BME280;61766;60.318;25.044;2023-08-24T02:23:31;101049.96;;;20.05;45.29
73518;BME280;61766;60.318;25.044;2023-08-24T02:25:59;101051.18;;;19.86;45.37
73518;BME280;61766;60.318;25.044;2023-08-24T02:28:23;101046.51;;;20.22;45.22
73518;BME280;61766;60.318;25.044;2023-08-24T02:30:49;101043.64;;;20.06;45.07
73518;BME280;61766;60.318;25.044;2023-08-24T02:33:14;101045.00;;;20.24;45.18
73518;BME280;61766;60.318;25.044;2023-08-24T02:35:40;101045.43;;;20.01;45.06
73518;BME280;61766;60.318;25.044;2023-08-24T02:38:06;101042.97;;;20.28;45.17
73518;BME280;61766;60.318;25.044;2023-08-24T02:40:31;101039.91;;;20.36;45.00
73518;BME280;61766;60.318;25.044;2023-08-24T02:42:57;101040.86;;;20.17;44.94
73518;BME280;61766;60.318;25.044;2023-08-24T02:45:23;101043.77;;;20.21;44.83
73518;BME280;61766;60.318;25.044;2023-08-24T02:47:49;101041.50;;;20.49;44.83
73518;BME280;61766;60.318;25.044;2023-08-24T02:50:14;101041.08;;;20.30;44.79
73518;BME280;61766;60.318;25.044;2023-08-24T02:52:40;101043.25;;;20.56;44.68
73518;BME280;61766;60.318;25.044;2023-08-24T02:55:07;101037.78;;;20.38;44.95
73518;BME280;61766;60.318;25.044;2023-08-24T02:57:32;101041.94;;;20.08;45.46
73518;BME280;61766;60.318;25.044;2023-08-24T02:59:57;101038.53;;;20.04;45.54
73518;BME280;61766;60.318;25.044;2023-08-24T03:02:23;101038.54;;;19.83;46.11
73518;BME280;61766;60.318;25.044;2023-08-24T03:04:49;101038.55;;;19.94;45.88
73518;BME280;61766;60.318;25.044;2023-08-24T03:07:15;101039.99;;;19.83;45.95
73518;BME280;61766;60.318;25.044;2023-08-24T03:09:40;101040.05;;;19.72;46.22
73518;BME280;61766;60.318;25.044;2023-08-24T03:12:07;101042.36;;;19.84;46.11
73518;BME280;61766;60.318;25.044;2023-08-24T03:14:32;101037.47;;;19.91;45.99
73518;BME280;61766;60.318;25.044;2023-08-24T03:16:58;101036.11;;;20.02;46.00
73518;BME280;61766;60.318;25.044;2023-08-24T03:19:23;101031.78;;;19.95;45.57
73518;BME280;61766;60.318;25.044;2023-08-24T03:21:49;101032.14;;;19.80;46.10
73518;BME280;61766;60.318;25.044;2023-08-24T03:24:15;101032.13;;;19.96;46.04
73518;BME280;61766;60.318;25.044;2023-08-24T03:26:40;101030.48;;;20.02;45.74
73518;BME280;61766;60.318;25.044;2023-08-24T03:29:06;101028.94;;;19.71;45.39
73518;BME280;61766;60.318;25.044;2023-08-24T03:31:32;101027.51;;;19.94;45.09
73518;BME280;61766;60.318;25.044;2023-08-24T03:33:58;101032.64;;;19.77;45.46
73518;BME280;61766;60.318;25.044;2023-08-24T03:36:23;101032.49;;;19.76;45.87
73518;BME280;61766;60.318;25.044;2023-08-24T03:38:49;101031.06;;;19.87;45.87
73518;BME280;61766;60.318;25.044;2023-08-24T03:41:15;101033.60;;;19.98;45.84
73518;BME280;61766;60.318;25.044;2023-08-24T03:43:40;101030.89;;;19.89;45.85
73518;BME280;61766;60.318;25.044;2023-08-24T03:46:06;101029.53;;;19.67;46.52
73518;BME280;61766;60.318;25.044;2023-08-24T03:48:32;101026.81;;;20.01;45.98
73518;BME280;61766;60.318;25.044;2023-08-24T03:50:58;101021.66;;;20.17;45.79
73518;BME280;61766;60.318;25.044;2023-08-24T03:53:23;101022.93;;;19.87;46.21
73518;BME280;61766;60.318;25.044;2023-08-24T03:55:51;101022.80;;;19.73;46.64
73518;BME280;61766;60.318;25.044;2023-08-24T03:58:15;101024.61;;;19.20;47.78
73518;BME280;61766;60.318;25.044;2023-08-24T04:00:41;101025.08;;;19.06;48.15
73518;BME280;61766;60.318;25.044;2023-08-24T04:03:06;101024.84;;;19.91;47.53
73518;BME280;61766;60.318;25.044;2023-08-24T04:05:32;101029.71;;;19.07;49.30
73518;BME280;61766;60.318;25.044;2023-08-24T04:07:58;101025.33;;;19.36;48.89
73518;BME280;61766;60.318;25.044;2023-08-24T04:10:23;101027.69;;;19.15;48.70
73518;BME280;61766;60.318;25.044;2023-08-24T04:12:49;101024.09;;;19.37;48.61
73518;BME280;61766;60.318;25.044;2023-08-24T04:15:14;101024.60;;;19.36;48.73
73518;BME280;61766;60.318;25.044;2023-08-24T04:17:40;101021.16;;;19.25;48.25
73518;BME280;61766;60.318;25.044;2023-08-24T04:20:06;101020.05;;;19.58;47.94
73518;BME280;61766;60.318;25.044;2023-08-24T04:22:32;101017.13;;;19.65;48.04
73518;BME280;61766;60.318;25.044;2023-08-24T04:24:57;101015.43;;;19.78;47.00
73518;BME280;61766;60.318;25.044;2023-08-24T04:27:22;101014.74;;;20.00;47.35
73518;BME280;61766;60.318;25.044;2023-08-24T04:29:48;101012.91;;;19.98;46.84
73518;BME280;61766;60.318;25.044;2023-08-24T04:32:14;101012.88;;;20.33;46.35
73518;BME280;61766;60.318;25.044;2023-08-24T04:34:39;101016.32;;;19.86;46.66
73518;BME280;61766;60.318;25.044;2023-08-24T04:37:05;101020.53;;;19.63;47.25
73518;BME280;61766;60.318;25.044;2023-08-24T04:39:30;101019.51;;;19.39;47.61
73518;BME280;61766;60.318;25.044;2023-08-24T04:41:56;101019.39;;;19.00;49.30
73518;BME280;61766;60.318;25.044;2023-08-24T04:44:22;101017.51;;;19.01;49.47
73518;BME280;61766;60.318;25.044;2023-08-24T04:46:47;101018.69;;;19.06;49.22
73518;BME280;61766;60.318;25.044;2023-08-24T04:49:13;101014.43;;;19.35;48.30
73518;BME280;61766;60.318;25.044;2023-08-24T04:51:39;101011.24;;;19.52;47.92
73518;BME280;61766;60.318;25.044;2023-08-24T04:54:05;101011.79;;;19.20;48.60
73518;BME280;61766;60.318;25.044;2023-08-24T04:56:30;101012.89;;;19.62;48.18
73518;BME280;61766;60.318;25.044;2023-08-24T04:58:57;101013.19;;;19.61;47.91
73518;BME280;61766;60.318;25.044;2023-08-24T05:01:22;101010.70;;;19.86;47.71
73518;BME280;61766;60.318;25.044;2023-08-24T05:03:47;101005.52;;;20.03;47.00
73518;BME280;61766;60.318;25.044;2023-08-24T05:06:13;101011.52;;;19.71;47.92
73518;BME280;61766;60.318;25.044;2023-08-24T05:08:38;101014.21;;;19.08;48.72
73518;BME280;61766;60.318;25.044;2023-08-24T05:13:30;101018.88;;;19.24;50.19
73518;BME280;61766;60.318;25.044;2023-08-24T05:15:55;101019.28;;;18.76;50.74
73518;BME280;61766;60.318;25.044;2023-08-24T05:18:21;101018.89;;;18.23;52.46
73518;BME280;61766;60.318;25.044;2023-08-24T05:20:47;101017.12;;;18.08;52.84
73518;BME280;61766;60.318;25.044;2023-08-24T05:23:12;101016.77;;;17.56;54.03
73518;BME280;61766;60.318;25.044;2023-08-24T05:25:37;101013.94;;;18.26;54.14
73518;BME280;61766;60.318;25.044;2023-08-24T05:28:03;101015.46;;;18.21;53.69
73518;BME280;61766;60.318;25.044;2023-08-24T05:30:28;101015.80;;;18.02;54.26
73518;BME280;61766;60.318;25.044;2023-08-24T05:32:54;101017.03;;;17.51;54.61
73518;BME280;61766;60.318;25.044;2023-08-24T05:35:19;101020.18;;;18.09;53.58
73518;BME280;61766;60.318;25.044;2023-08-24T05:37:44;101022.00;;;18.36;52.37
73518;BME280;61766;60.318;25.044;2023-08-24T05:40:10;101022.57;;;18.61;51.65
73518;BME280;61766;60.318;25.044;2023-08-24T05:42:35;101020.27;;;18.93;50.77
73518;BME280;61766;60.318;25.044;2023-08-24T05:45:01;101016.50;;;19.44;50.39
73518;BME280;61766;60.318;25.044;2023-08-24T05:47:26;101016.41;;;19.32;49.21
73518;BME280;61766;60.318;25.044;2023-08-24T05:49:52;101015.08;;;19.84;48.39
73518;BME280;61766;60.318;25.044;2023-08-24T05:52:17;101014.33;;;19.77;48.19
73518;BME280;61766;60.318;25.044;2023-08-24T05:54:43;101015.63;;;20.29;47.59
73518;BME280;61766;60.318;25.044;2023-08-24T05:57:08;101014.09;;;20.11;47.29
73518;BME280;61766;60.318;25.044;2023-08-24T05:59:34;101012.04;;;20.52;46.03
73518;BME280;61766;60.318;25.044;2023-08-24T06:01:59;101012.72;;;19.38;47.81
73518;BME280;61766;60.318;25.044;2023-08-24T06:04:25;101015.26;;;19.41;48.56
73518;BME280;61766;60.318;25.044;2023-08-24T06:06:51;101014.38;;;19.34;48.45
73518;BME280;61766;60.318;25.044;2023-08-24T06:09:16;101013.63;;;19.69;47.80
73518;BME280;61766;60.318;25.044;2023-08-24T06:11:42;101007.55;;;20.08;46.84
73518;BME280;61766;60.318;25.044;2023-08-24T06:14:08;101001.68;;;20.13;45.90
73518;BME280;61766;60.318;25.044;2023-08-24T06:16:34;101006.28;;;20.32;46.29
73518;BME280;61766;60.318;25.044;2023-08-24T06:18:59;101004.17;;;20.55;46.93
73518;BME280;61766;60.318;25.044;2023-08-24T06:21:25;101004.78;;;20.50;45.59
73518;BME280;61766;60.318;25.044;2023-08-24T06:23:51;101005.75;;;20.56;46.07
73518;BME280;61766;60.318;25.044;2023-08-24T06:26:17;101009.48;;;20.80;44.55
73518;BME280;61766;60.318;25.044;2023-08-24T06:28:42;101010.57;;;20.61;44.43
73518;BME280;61766;60.318;25.044;2023-08-24T06:31:08;101014.16;;;21.09;44.83
73518;BME280;61766;60.318;25.044;2023-08-24T06:33:37;101013.68;;;21.34;44.07
73518;BME280;61766;60.318;25.044;2023-08-24T06:35:59;101015.86;;;21.34;43.67
73518;BME280;61766;60.318;25.044;2023-08-24T06:38:25;101015.95;;;21.39;43.45
73518;BME280;61766;60.318;25.044;2023-08-24T06:40:51;101018.79;;;20.94;43.90
73518;BME280;61766;60.318;25.044;2023-08-24T06:43:17;101016.59;;;20.87;44.65
73518;BME280;61766;60.318;25.044;2023-08-24T06:45:43;101018.50;;;20.99;45.26
73518;BME280;61766;60.318;25.044;2023-08-24T06:48:08;101018.36;;;20.88;45.12
73518;BME280;61766;60.318;25.044;2023-08-24T06:50:33;101019.88;;;20.80;44.37
73518;BME280;61766;60.318;25.044;2023-08-24T06:52:59;101021.82;;;20.87;45.50
73518;BME280;61766;60.318;25.044;2023-08-24T06:55:25;101020.58;;;21.19;45.00
73518;BME280;61766;60.318;25.044;2023-08-24T06:57:51;101022.21;;;21.54;44.87
73518;BME280;61766;60.318;25.044;2023-08-24T07:00:17;101021.98;;;21.49;44.05
73518;BME280;61766;60.318;25.044;2023-08-24T07:02:42;101016.63;;;21.63;43.73
73518;BME280;61766;60.318;25.044;2023-08-24T07:05:08;101017.45;;;22.01;42.99
73518;BME280;61766;60.318;25.044;2023-08-24T07:07:33;101019.98;;;21.86;42.36
73518;BME280;61766;60.318;25.044;2023-08-24T07:09:59;101018.16;;;21.98;42.81
73518;BME280;61766;60.318;25.044;2023-08-24T07:12:24;101020.10;;;22.16;43.33
73518;BME280;61766;60.318;25.044;2023-08-24T07:14:50;101014.75;;;22.38;41.59
73518;BME280;61766;60.318;25.044;2023-08-24T07:17:16;101020.18;;;22.56;43.26
73518;BME280;61766;60.318;25.044;2023-08-24T07:19:41;101021.00;;;22.99;41.51
73518;BME280;61766;60.318;25.044;2023-08-24T07:22:07;101025.98;;;23.18;40.20
73518;BME280;61766;60.318;25.044;2023-08-24T07:24:33;101023.98;;;23.38;38.96
73518;BME280;61766;60.318;25.044;2023-08-24T07:26:58;101023.13;;;22.85;39.12
73518;BME280;61766;60.318;25.044;2023-08-24T07:29:24;101021.73;;;23.16;39.10
73518;BME280;61766;60.318;25.044;2023-08-24T07:31:49;101026.97;;;24.02;37.85
73518;BME280;61766;60.318;25.044;2023-08-24T07:34:15;101024.62;;;23.86;38.64
73518;BME280;61766;60.318;25.044;2023-08-24T07:36:41;101026.40;;;23.66;38.12
73518;BME280;61766;60.318;25.044;2023-08-24T07:39:06;101026.58;;;23.83;37.89
73518;BME280;61766;60.318;25.044;2023-08-24T07:41:32;101025.01;;;23.63;39.23
73518;BME280;61766;60.318;25.044;2023-08-24T07:43:58;101025.59;;;23.80;39.07
73518;BME280;61766;60.318;25.044;2023-08-24T07:46:23;101024.23;;;23.85;38.18
73518;BME280;61766;60.318;25.044;2023-08-24T07:48:49;101018.35;;;24.56;39.27
73518;BME280;61766;60.318;25.044;2023-08-24T07:51:15;101020.86;;;24.96;37.91
73518;BME280;61766;60.318;25.044;2023-08-24T07:53:40;101022.13;;;25.27;37.10
73518;BME280;61766;60.318;25.044;2023-08-24T07:56:06;101023.32;;;24.53;36.44
73518;BME280;61766;60.318;25.044;2023-08-24T07:58:32;101021.79;;;25.00;36.32
73518;BME280;61766;60.318;25.044;2023-08-24T08:00:57;101026.90;;;24.21;37.67
73518;BME280;61766;60.318;25.044;2023-08-24T08:03:23;101025.10;;;24.27;37.98
73518;BME280;61766;60.318;25.044;2023-08-24T08:05:49;101022.57;;;24.51;37.42
73518;BME280;61766;60.318;25.044;2023-08-24T08:08:14;101025.19;;;24.78;36.98
73518;BME280;61766;60.318;25.044;2023-08-24T08:10:39;101024.17;;;25.06;36.94
73518;BME280;61766;60.318;25.044;2023-08-24T08:13:06;101027.55;;;24.64;35.87
73518;BME280;61766;60.318;25.044;2023-08-24T08:15:31;101032.15;;;24.26;37.23
73518;BME280;61766;60.318;25.044;2023-08-24T08:17:56;101036.44;;;24.76;36.20
73518;BME280;61766;60.318;25.044;2023-08-24T08:20:22;101036.06;;;24.87;36.58
73518;BME280;61766;60.318;25.044;2023-08-24T08:22:48;101033.54;;;24.55;36.75
73518;BME280;61766;60.318;25.044;2023-08-24T08:25:13;101034.63;;;24.38;36.35
73518;BME280;61766;60.318;25.044;2023-08-24T08:27:39;101032.45;;;24.49;37.98
73518;BME280;61766;60.318;25.044;2023-08-24T08:30:05;101027.36;;;25.15;35.92
73518;BME280;61766;60.318;25.044;2023-08-24T08:32:30;101030.19;;;25.15;34.78
73518;BME280;61766;60.318;25.044;2023-08-24T08:34:55;101027.13;;;25.87;34.56
73518;BME280;61766;60.318;25.044;2023-08-24T08:37:21;101026.65;;;26.07;34.55
73518;BME280;61766;60.318;25.044;2023-08-24T08:39:47;101022.29;;;26.64;33.37
73518;BME280;61766;60.318;25.044;2023-08-24T08:42:15;101024.66;;;26.01;36.30
73518;BME280;61766;60.318;25.044;2023-08-24T08:44:38;101020.33;;;26.07;35.27
73518;BME280;61766;60.318;25.044;2023-08-24T08:47:04;101017.86;;;26.50;35.59
73518;BME280;61766;60.318;25.044;2023-08-24T08:49:30;101015.62;;;26.71;33.07
73518;BME280;61766;60.318;25.044;2023-08-24T08:51:55;101015.94;;;27.22;33.10
73518;BME280;61766;60.318;25.044;2023-08-24T08:54:20;101013.15;;;27.21;31.31
73518;BME280;61766;60.318;25.044;2023-08-24T08:56:46;101013.58;;;27.21;32.27
73518;BME280;61766;60.318;25.044;2023-08-24T08:59:13;101011.54;;;26.86;32.03
73518;BME280;61766;60.318;25.044;2023-08-24T09:01:37;101009.87;;;27.28;31.65
73518;BME280;61766;60.318;25.044;2023-08-24T09:04:03;101005.46;;;27.22;31.10
73518;BME280;61766;60.318;25.044;2023-08-24T09:06:28;101004.13;;;27.26;31.66
73518;BME280;61766;60.318;25.044;2023-08-24T09:08:55;101002.29;;;27.10;30.84
73518;BME280;61766;60.318;25.044;2023-08-24T09:11:20;101004.67;;;26.91;30.61
73518;BME280;61766;60.318;25.044;2023-08-24T09:13:45;101002.40;;;26.66;29.81
73518;BME280;61766;60.318;25.044;2023-08-24T09:16:11;101003.37;;;25.52;31.10
73518;BME280;61766;60.318;25.044;2023-08-24T09:18:39;101004.42;;;25.49;31.54
73518;BME280;61766;60.318;25.044;2023-08-24T09:23:27;100995.66;;;25.54;31.92
73518;BME280;61766;60.318;25.044;2023-08-24T09:25:53;100994.29;;;25.56;32.27
73518;BME280;61766;60.318;25.044;2023-08-24T09:28:24;100992.80;;;25.50;32.49
73518;BME280;61766;60.318;25.044;2023-08-24T09:30:49;100994.07;;;25.13;32.47
73518;BME280;61766;60.318;25.044;2023-08-24T09:33:13;100990.84;;;25.05;32.06
73518;BME280;61766;60.318;25.044;2023-08-24T09:35:37;100989.44;;;24.84;32.88
73518;BME280;61766;60.318;25.044;2023-08-24T09:38:01;100985.45;;;24.81;34.23
73518;BME280;61766;60.318;25.044;2023-08-24T09:40:27;100985.03;;;24.84;34.43
73518;BME280;61766;60.318;25.044;2023-08-24T09:42:52;100978.76;;;24.56;33.65
73518;BME280;61766;60.318;25.044;2023-08-24T09:45:18;100979.72;;;25.01;33.54
73518;BME280;61766;60.318;25.044;2023-08-24T09:47:49;100980.94;;;24.25;35.07
73518;BME280;61766;60.318;25.044;2023-08-24T09:50:10;100988.51;;;24.06;35.23
73518;BME280;61766;60.318;25.044;2023-08-24T09:52:35;100985.97;;;23.48;37.46
73518;BME280;61766;60.318;25.044;2023-08-24T09:55:04;100984.51;;;22.79;38.94
73518;BME280;61766;60.318;25.044;2023-08-24T09:57:26;100986.88;;;23.02;37.93
73518;BME280;61766;60.318;25.044;2023-08-24T09:59:53;100986.74;;;23.01;37.87
73518;BME280;61766;60.318;25.044;2023-08-24T10:02:20;100982.31;;;24.46;37.03
73518;BME280;61766;60.318;25.044;2023-08-24T10:04:43;100977.69;;;24.33;34.55
73518;BME280;61766;60.318;25.044;2023-08-24T10:07:10;100973.59;;;24.75;34.67
73518;BME280;61766;60.318;25.044;2023-08-24T10:09:38;100976.77;;;24.52;35.13
73518;BME280;61766;60.318;25.044;2023-08-24T10:12:03;100977.66;;;23.10;36.21
73518;BME280;61766;60.318;25.044;2023-08-24T10:14:31;100967.10;;;24.55;34.66
73518;BME280;61766;60.318;25.044;2023-08-24T10:16:52;100966.94;;;24.62;34.07
73518;BME280;61766;60.318;25.044;2023-08-24T10:19:17;100973.51;;;24.11;34.68
73518;BME280;61766;60.318;25.044;2023-08-24T10:21:44;100972.28;;;23.86;35.39
73518;BME280;61766;60.318;25.044;2023-08-24T10:24:09;100969.84;;;24.18;35.07
73518;BME280;61766;60.318;25.044;2023-08-24T10:26:36;100968.45;;;24.28;35.83
73518;BME280;61766;60.318;25.044;2023-08-24T10:29:00;100966.85;;;23.00;37.25
73518;BME280;61766;60.318;25.044;2023-08-24T10:31:25;100964.60;;;24.17;36.48
73518;BME280;61766;60.318;25.044;2023-08-24T10:33:52;100965.71;;;23.80;36.65
73518;BME280;61766;60.318;25.044;2023-08-24T10:36:17;100965.63;;;23.85;36.76
73518;BME280;61766;60.318;25.044;2023-08-24T10:38:44;100969.94;;;22.97;37.89
73518;BME280;61766;60.318;25.044;2023-08-24T10:41:09;100960.22;;;22.68;39.45
73518;BME280;61766;60.318;25.044;2023-08-24T10:43:37;100958.05;;;22.42;40.18
73518;BME280;61766;60.318;25.044;2023-08-24T10:46:00;100960.30;;;21.54;40.46
73518;BME280;61766;60.318;25.044;2023-08-24T10:48:26;100947.74;;;22.28;40.27
73518;BME280;61766;60.318;25.044;2023-08-24T10:55:42;100953.54;;;22.13;39.79
73518;BME280;61766;60.318;25.044;2023-08-24T10:58:07;100948.88;;;21.94;39.30
73518;BME280;61766;60.318;25.044;2023-08-24T11:00:33;100949.02;;;21.97;38.97
73518;BME280;61766;60.318;25.044;2023-08-24T11:02:59;100950.97;;;22.51;38.44
73518;BME280;61766;60.318;25.044;2023-08-24T11:05:25;100955.56;;;23.68;37.64
73518;BME280;61766;60.318;25.044;2023-08-24T11:07:55;100959.51;;;23.30;38.02
73518;BME280;61766;60.318;25.044;2023-08-24T11:10:16;100961.42;;;23.13;38.70
73518;BME280;61766;60.318;25.044;2023-08-24T11:15:07;100959.18;;;23.47;37.39
73518;BME280;61766;60.318;25.044;2023-08-24T11:17:33;100953.26;;;22.57;38.17
73518;BME280;61766;60.318;25.044;2023-08-24T11:19:57;100955.87;;;23.40;38.29
73518;BME280;61766;60.318;25.044;2023-08-24T11:22:23;100960.64;;;22.95;39.88
73518;BME280;61766;60.318;25.044;2023-08-24T11:24:49;100960.58;;;21.78;42.40
73518;BME280;61766;60.318;25.044;2023-08-24T11:27:14;100966.50;;;22.59;40.80
73518;BME280;61766;60.318;25.044;2023-08-24T11:29:40;100962.08;;;23.00;41.52
73518;BME280;61766;60.318;25.044;2023-08-24T11:32:06;100969.97;;;23.01;42.91
73518;BME280;61766;60.318;25.044;2023-08-24T11:34:32;100964.17;;;23.13;40.22
73518;BME280;61766;60.318;25.044;2023-08-24T11:36:57;100966.24;;;23.37;37.02
73518;BME280;61766;60.318;25.044;2023-08-24T11:39:24;100969.46;;;23.27;37.77
73518;BME280;61766;60.318;25.044;2023-08-24T11:44:14;100974.36;;;22.26;39.22
73518;BME280;61766;60.318;25.044;2023-08-24T11:46:40;100979.35;;;22.55;38.20
73518;BME280;61766;60.318;25.044;2023-08-24T11:49:07;100984.85;;;22.00;37.36
73518;BME280;61766;60.318;25.044;2023-08-24T11:51:31;100979.39;;;22.32;36.76
73518;BME280;61766;60.318;25.044;2023-08-24T11:53:56;100978.61;;;22.15;38.50
73518;BME280;61766;60.318;25.044;2023-08-24T11:56:23;100962.69;;;23.06;38.41
73518;BME280;61766;60.318;25.044;2023-08-24T11:58:51;100963.40;;;23.38;36.44
73518;BME280;61766;60.318;25.044;2023-08-24T12:01:14;100962.46;;;23.25;37.18
73518;BME280;61766;60.318;25.044;2023-08-24T12:03:39;100966.31;;;23.76;35.93
73518;BME280;61766;60.318;25.044;2023-08-24T12:06:10;100973.57;;;24.00;36.46
73518;BME280;61766;60.318;25.044;2023-08-24T12:08:30;100973.31;;;24.01;35.82
73518;BME280;61766;60.318;25.044;2023-08-24T12:10:56;100977.43;;;22.50;36.88
73518;BME280;61766;60.318;25.044;2023-08-24T12:13:22;100986.25;;;23.51;37.39
73518;BME280;61766;60.318;25.044;2023-08-24T12:15:48;100991.47;;;22.39;39.67
73518;BME280;61766;60.318;25.044;2023-08-24T12:18:14;100993.66;;;22.52;40.27
73518;BME280;61766;60.318;25.044;2023-08-24T12:20:39;100992.96;;;22.33;40.61
73518;BME280;61766;60.318;25.044;2023-08-24T12:23:05;100995.81;;;20.77;42.38
73518;BME280;61766;60.318;25.044;2023-08-24T12:25:30;100985.04;;;22.14;40.60
73518;BME280;61766;60.318;25.044;2023-08-24T12:30:21;100980.10;;;21.75;40.18
73518;BME280;61766;60.318;25.044;2023-08-24T12:32:48;100986.13;;;22.38;39.87
73518;BME280;61766;60.318;25.044;2023-08-24T12:35:14;100993.89;;;22.67;40.09
73518;BME280;61766;60.318;25.044;2023-08-24T12:37:38;100999.70;;;22.53;41.40
73518;BME280;61766;60.318;25.044;2023-08-24T12:40:04;101009.04;;;22.88;40.83
73518;BME280;61766;60.318;25.044;2023-08-24T12:42:29;101019.65;;;23.18;41.69
73518;BME280;61766;60.318;25.044;2023-08-24T12:44:55;101025.36;;;23.26;41.88
73518;BME280;61766;60.318;25.044;2023-08-24T12:47:21;101024.38;;;23.43;40.83